sensor_id;sensor_type;location;lat;lon;timestamp;P1;durP1;ratioP1;P2;durP2;ratioP2
61393;SDS011;48555;50.952;-0.120;2023-04-15T00:00:28;5.57;;;3.72;;
61393;SDS011;48555;50.952;-0.120;2023-04-15T00:02:54;6.18;;;4.40;;
61393;SDS011;48555;50.952;-0.120;2023-04-15T00:05:19;6.53;;;4.32;;
61393;SDS011;48555;50.952;-0.120;2023-04-15T00:07:45;8.52;;;5.22;;
61393;SDS011;48555;50.952;-0.120;2023-04-15T00:10:11;6.82;;;5.00;;
61393;SDS011;48555;50.952;-0.120;2023-04-15T00:12:37;8.20;;;5.13;;
61393;SDS011;48555;50.952;-0.120;2023-04-15T00:15:02;7.30;;;5.25;;
61393;SDS011;48555;50.952;-0.120;2023-04-15T00:17:28;8.23;;;6.00;;
61393;SDS011;48555;50.952;-0.120;2023-04-15T00:19:53;7.90;;;5.47;;
61393;SDS011;48555;50.952;-0.120;2023-04-15T00:22:19;7.68;;;5.60;;
61393;SDS011;48555;50.952;-0.120;2023-04-15T00:24:44;7.60;;;6.05;;
61393;SDS011;48555;50.952;-0.120;2023-04-15T00:27:10;8.68;;;6.05;;
61393;SDS011;48555;50.952;-0.120;2023-04-15T00:29:35;8.60;;;5.57;;
61393;SDS011;48555;50.952;-0.120;2023-04-15T00:32:01;7.68;;;5.10;;
61393;SDS011;48555;50.952;-0.120;2023-04-15T00:34:26;8.07;;;5.22;;
61393;SDS011;48555;50.952;-0.120;2023-04-15T00:36:52;6.50;;;4.57;;
61393;SDS011;48555;50.952;-0.120;2023-04-15T00:39:18;7.85;;;4.72;;
61393;SDS011;48555;50.952;-0.120;2023-04-15T00:41:44;6.10;;;4.18;;
61393;SDS011;48555;50.952;-0.120;2023-04-15T00:44:10;5.63;;;3.83;;
61393;SDS011;48555;50.952;-0.120;2023-04-15T00:46:36;5.43;;;3.40;;
61393;SDS011;48555;50.952;-0.120;2023-04-15T00:49:03;5.65;;;3.50;;
61393;SDS011;48555;50.952;-0.120;2023-04-15T00:51:30;5.63;;;3.38;;
61393;SDS011;48555;50.952;-0.120;2023-04-15T00:53:57;5.45;;;3.70;;
61393;SDS011;48555;50.952;-0.120;2023-04-15T00:56:24;5.57;;;3.92;;
61393;SDS011;48555;50.952;-0.120;2023-04-15T00:58:51;6.47;;;4.13;;
61393;SDS011;48555;50.952;-0.120;2023-04-15T01:01:20;6.00;;;4.00;;
61393;SDS011;48555;50.952;-0.120;2023-04-15T01:03:47;5.75;;;4.00;;
61393;SDS011;48555;50.952;-0.120;2023-04-15T01:06:14;6.47;;;4.47;;
61393;SDS011;48555;50.952;-0.120;2023-04-15T01:08:40;6.72;;;4.15;;
61393;SDS011;48555;50.952;-0.120;2023-04-15T01:11:06;5.80;;;3.60;;
61393;SDS011;48555;50.952;-0.120;2023-04-15T01:13:32;6.45;;;4.30;;
61393;SDS011;48555;50.952;-0.120;2023-04-15T01:15:58;7.07;;;4.90;;
61393;SDS011;48555;50.952;-0.120;2023-04-15T01:18:24;7.55;;;4.90;;
61393;SDS011;48555;50.952;-0.120;2023-04-15T01:20:50;7.47;;;5.00;;
61393;SDS011;48555;50.952;-0.120;2023-04-15T01:23:16;8.18;;;5.25;;
61393;SDS011;48555;50.952;-0.120;2023-04-15T01:25:41;7.90;;;4.90;;
61393;SDS011;48555;50.952;-0.120;2023-04-15T01:28:07;6.70;;;4.90;;
61393;SDS011;48555;50.952;-0.120;2023-04-15T01:30:33;8.27;;;5.45;;
61393;SDS011;48555;50.952;-0.120;2023-04-15T01:32:59;8.15;;;5.50;;
61393;SDS011;48555;50.952;-0.120;2023-04-15T01:35:25;7.35;;;5.25;;
61393;SDS011;48555;50.952;-0.120;2023-04-15T01:37:51;6.82;;;5.05;;
61393;SDS011;48555;50.952;-0.120;2023-04-15T01:40:18;6.53;;;4.78;;
61393;SDS011;48555;50.952;-0.120;2023-04-15T01:42:43;7.85;;;4.90;;
61393;SDS011;48555;50.952;-0.120;2023-04-15T01:45:09;6.53;;;4.50;;
61393;SDS011;48555;50.952;-0.120;2023-04-15T01:47:35;7.25;;;4.53;;
61393;SDS011;48555;50.952;-0.120;2023-04-15T01:50:00;6.82;;;4.60;;
61393;SDS011;48555;50.952;-0.120;2023-04-15T01:52:26;6.72;;;4.03;;
61393;SDS011;48555;50.952;-0.120;2023-04-15T01:54:51;5.97;;;4.18;;
61393;SDS011;48555;50.952;-0.120;2023-04-15T01:57:16;6.82;;;4.43;;
61393;SDS011;48555;50.952;-0.120;2023-04-15T01:59:42;6.93;;;4.15;;
61393;SDS011;48555;50.952;-0.120;2023-04-15T02:02:07;5.13;;;3.50;;
61393;SDS011;48555;50.952;-0.120;2023-04-15T02:04:32;5.95;;;3.85;;
61393;SDS011;48555;50.952;-0.120;2023-04-15T02:06:58;5.57;;;3.85;;
61393;SDS011;48555;50.952;-0.120;2023-04-15T02:09:23;6.45;;;4.00;;
61393;SDS011;48555;50.952;-0.120;2023-04-15T02:11:49;6.05;;;3.47;;
61393;SDS011;48555;50.952;-0.120;2023-04-15T02:14:16;6.57;;;4.25;;
61393;SDS011;48555;50.952;-0.120;2023-04-15T02:16:42;6.72;;;4.20;;
61393;SDS011;48555;50.952;-0.120;2023-04-15T02:19:07;6.47;;;4.10;;
61393;SDS011;48555;50.952;-0.120;2023-04-15T02:21:33;5.80;;;4.20;;
61393;SDS011;48555;50.952;-0.120;2023-04-15T02:23:59;5.10;;;3.88;;
61393;SDS011;48555;50.952;-0.120;2023-04-15T02:26:25;6.43;;;4.50;;
61393;SDS011;48555;50.952;-0.120;2023-04-15T02:28:50;7.22;;;4.15;;
61393;SDS011;48555;50.952;-0.120;2023-04-15T02:31:16;7.00;;;4.28;;
61393;SDS011;48555;50.952;-0.120;2023-04-15T02:33:41;6.43;;;4.22;;
61393;SDS011;48555;50.952;-0.120;2023-04-15T02:36:06;6.13;;;4.25;;
61393;SDS011;48555;50.952;-0.120;2023-04-15T02:38:32;6.07;;;4.47;;
61393;SDS011;48555;50.952;-0.120;2023-04-15T02:40:57;7.13;;;4.20;;
61393;SDS011;48555;50.952;-0.120;2023-04-15T02:43:23;7.07;;;4.50;;
61393;SDS011;48555;50.952;-0.120;2023-04-15T02:45:48;6.57;;;4.60;;
61393;SDS011;48555;50.952;-0.120;2023-04-15T02:48:14;6.60;;;4.55;;
61393;SDS011;48555;50.952;-0.120;2023-04-15T02:50:41;6.07;;;4.35;;
61393;SDS011;48555;50.952;-0.120;2023-04-15T02:53:07;7.05;;;4.90;;
61393;SDS011;48555;50.952;-0.120;2023-04-15T02:55:32;7.70;;;4.97;;
61393;SDS011;48555;50.952;-0.120;2023-04-15T02:57:57;6.47;;;4.20;;
61393;SDS011;48555;50.952;-0.120;2023-04-15T03:00:24;6.30;;;4.85;;
61393;SDS011;48555;50.952;-0.120;2023-04-15T03:02:50;6.20;;;4.60;;
61393;SDS011;48555;50.952;-0.120;2023-04-15T03:05:20;6.43;;;4.88;;
61393;SDS011;48555;50.952;-0.120;2023-04-15T03:07:48;5.63;;;4.22;;
61393;SDS011;48555;50.952;-0.120;2023-04-15T03:10:14;5.93;;;4.45;;
61393;SDS011;48555;50.952;-0.120;2023-04-15T03:12:39;6.38;;;4.15;;
61393;SDS011;48555;50.952;-0.120;2023-04-15T03:15:05;7.30;;;4.22;;
61393;SDS011;48555;50.952;-0.120;2023-04-15T03:17:30;6.60;;;4.35;;
61393;SDS011;48555;50.952;-0.120;2023-04-15T03:19:56;5.75;;;4.10;;
61393;SDS011;48555;50.952;-0.120;2023-04-15T03:22:21;5.10;;;3.72;;
61393;SDS011;48555;50.952;-0.120;2023-04-15T03:24:46;7.15;;;4.32;;
61393;SDS011;48555;50.952;-0.120;2023-04-15T03:27:12;5.78;;;4.00;;
61393;SDS011;48555;50.952;-0.120;2023-04-15T03:29:37;5.82;;;3.42;;
61393;SDS011;48555;50.952;-0.120;2023-04-15T03:32:03;4.95;;;3.40;;
61393;SDS011;48555;50.952;-0.120;2023-04-15T03:34:28;5.05;;;3.10;;
61393;SDS011;48555;50.952;-0.120;2023-04-15T03:36:54;5.00;;;3.05;;
61393;SDS011;48555;50.952;-0.120;2023-04-15T03:39:20;5.75;;;3.10;;
61393;SDS011;48555;50.952;-0.120;2023-04-15T03:41:45;5.10;;;3.08;;
61393;SDS011;48555;50.952;-0.120;2023-04-15T03:44:11;4.13;;;3.03;;
61393;SDS011;48555;50.952;-0.120;2023-04-15T03:46:36;5.13;;;3.00;;
61393;SDS011;48555;50.952;-0.120;2023-04-15T03:49:01;4.88;;;3.17;;
61393;SDS011;48555;50.952;-0.120;2023-04-15T03:51:27;4.07;;;2.83;;
61393;SDS011;48555;50.952;-0.120;2023-04-15T03:53:52;5.45;;;3.10;;
61393;SDS011;48555;50.952;-0.120;2023-04-15T03:56:17;5.35;;;3.30;;
61393;SDS011;48555;50.952;-0.120;2023-04-15T03:58:43;4.90;;;2.88;;
61393;SDS011;48555;50.952;-0.120;2023-04-15T04:01:08;5.95;;;3.47;;
61393;SDS011;48555;50.952;-0.120;2023-04-15T04:03:33;5.60;;;3.20;;
61393;SDS011;48555;50.952;-0.120;2023-04-15T04:05:59;5.95;;;3.05;;
61393;SDS011;48555;50.952;-0.120;2023-04-15T04:08:24;4.45;;;2.90;;
61393;SDS011;48555;50.952;-0.120;2023-04-15T04:10:51;4.40;;;2.97;;
61393;SDS011;48555;50.952;-0.120;2023-04-15T04:13:16;4.55;;;2.80;;
61393;SDS011;48555;50.952;-0.120;2023-04-15T04:15:42;3.78;;;2.80;;
61393;SDS011;48555;50.952;-0.120;2023-04-15T04:18:07;4.55;;;3.10;;
61393;SDS011;48555;50.952;-0.120;2023-04-15T04:20:32;4.43;;;2.65;;
61393;SDS011;48555;50.952;-0.120;2023-04-15T04:22:58;3.67;;;2.35;;
61393;SDS011;48555;50.952;-0.120;2023-04-15T04:25:23;3.60;;;2.42;;
61393;SDS011;48555;50.952;-0.120;2023-04-15T04:27:49;4.25;;;2.60;;
61393;SDS011;48555;50.952;-0.120;2023-04-15T04:30:14;4.22;;;2.58;;
61393;SDS011;48555;50.952;-0.120;2023-04-15T04:32:40;3.92;;;2.55;;
61393;SDS011;48555;50.952;-0.120;2023-04-15T04:35:05;3.50;;;2.60;;
61393;SDS011;48555;50.952;-0.120;2023-04-15T04:37:31;4.90;;;3.03;;
61393;SDS011;48555;50.952;-0.120;2023-04-15T04:39:56;4.05;;;2.70;;
61393;SDS011;48555;50.952;-0.120;2023-04-15T04:42:21;4.90;;;2.70;;
61393;SDS011;48555;50.952;-0.120;2023-04-15T04:44:47;4.13;;;2.50;;
61393;SDS011;48555;50.952;-0.120;2023-04-15T04:47:12;3.53;;;2.45;;
61393;SDS011;48555;50.952;-0.120;2023-04-15T04:49:38;4.75;;;2.58;;
61393;SDS011;48555;50.952;-0.120;2023-04-15T04:52:03;5.47;;;2.10;;
61393;SDS011;48555;50.952;-0.120;2023-04-15T04:54:28;2.80;;;2.20;;
61393;SDS011;48555;50.952;-0.120;2023-04-15T04:56:55;3.83;;;2.38;;
61393;SDS011;48555;50.952;-0.120;2023-04-15T04:59:21;3.78;;;2.55;;
61393;SDS011;48555;50.952;-0.120;2023-04-15T05:01:47;4.53;;;2.60;;
61393;SDS011;48555;50.952;-0.120;2023-04-15T05:04:12;4.22;;;2.70;;
61393;SDS011;48555;50.952;-0.120;2023-04-15T05:06:38;5.30;;;2.88;;
61393;SDS011;48555;50.952;-0.120;2023-04-15T05:09:03;4.03;;;2.75;;
61393;SDS011;48555;50.952;-0.120;2023-04-15T05:11:28;4.60;;;2.90;;
61393;SDS011;48555;50.952;-0.120;2023-04-15T05:13:54;4.63;;;2.60;;
61393;SDS011;48555;50.952;-0.120;2023-04-15T05:16:19;4.30;;;2.80;;
61393;SDS011;48555;50.952;-0.120;2023-04-15T05:18:45;3.83;;;2.58;;
61393;SDS011;48555;50.952;-0.120;2023-04-15T05:21:11;3.78;;;2.85;;
61393;SDS011;48555;50.952;-0.120;2023-04-15T05:23:37;3.80;;;2.88;;
61393;SDS011;48555;50.952;-0.120;2023-04-15T05:26:02;4.82;;;3.00;;
61393;SDS011;48555;50.952;-0.120;2023-04-15T05:28:28;4.85;;;3.25;;
61393;SDS011;48555;50.952;-0.120;2023-04-15T05:30:53;4.22;;;3.17;;
61393;SDS011;48555;50.952;-0.120;2023-04-15T05:33:18;4.75;;;3.30;;
61393;SDS011;48555;50.952;-0.120;2023-04-15T05:35:44;4.25;;;3.13;;
61393;SDS011;48555;50.952;-0.120;2023-04-15T05:38:09;4.75;;;3.50;;
61393;SDS011;48555;50.952;-0.120;2023-04-15T05:40:35;5.63;;;3.00;;
61393;SDS011;48555;50.952;-0.120;2023-04-15T05:43:00;4.70;;;3.30;;
61393;SDS011;48555;50.952;-0.120;2023-04-15T05:45:26;5.15;;;3.28;;
61393;SDS011;48555;50.952;-0.120;2023-04-15T05:47:51;4.88;;;3.28;;
61393;SDS011;48555;50.952;-0.120;2023-04-15T05:50:18;5.00;;;3.42;;
61393;SDS011;48555;50.952;-0.120;2023-04-15T05:52:43;4.53;;;3.25;;
61393;SDS011;48555;50.952;-0.120;2023-04-15T05:55:10;5.68;;;3.80;;
61393;SDS011;48555;50.952;-0.120;2023-04-15T05:57:35;5.30;;;3.80;;
61393;SDS011;48555;50.952;-0.120;2023-04-15T06:00:01;4.78;;;3.72;;
61393;SDS011;48555;50.952;-0.120;2023-04-15T06:02:29;5.22;;;3.85;;
61393;SDS011;48555;50.952;-0.120;2023-04-15T06:04:55;5.00;;;3.72;;
61393;SDS011;48555;50.952;-0.120;2023-04-15T06:07:21;6.35;;;3.85;;
61393;SDS011;48555;50.952;-0.120;2023-04-15T06:09:47;4.93;;;3.38;;
61393;SDS011;48555;50.952;-0.120;2023-04-15T06:12:12;4.82;;;3.60;;
61393;SDS011;48555;50.952;-0.120;2023-04-15T06:14:38;5.03;;;3.83;;
61393;SDS011;48555;50.952;-0.120;2023-04-15T06:17:04;4.88;;;3.63;;
61393;SDS011;48555;50.952;-0.120;2023-04-15T06:19:29;5.05;;;3.95;;
61393;SDS011;48555;50.952;-0.120;2023-04-15T06:21:55;6.25;;;4.10;;
61393;SDS011;48555;50.952;-0.120;2023-04-15T06:24:22;4.95;;;3.92;;
61393;SDS011;48555;50.952;-0.120;2023-04-15T06:26:47;5.45;;;3.90;;
61393;SDS011;48555;50.952;-0.120;2023-04-15T06:29:12;5.18;;;3.55;;
61393;SDS011;48555;50.952;-0.120;2023-04-15T06:31:38;5.50;;;4.03;;
61393;SDS011;48555;50.952;-0.120;2023-04-15T06:34:03;7.43;;;4.07;;
61393;SDS011;48555;50.952;-0.120;2023-04-15T06:36:29;5.00;;;3.58;;
61393;SDS011;48555;50.952;-0.120;2023-04-15T06:38:54;5.68;;;4.20;;
61393;SDS011;48555;50.952;-0.120;2023-04-15T06:41:21;6.13;;;4.30;;
61393;SDS011;48555;50.952;-0.120;2023-04-15T06:43:46;5.75;;;4.00;;
61393;SDS011;48555;50.952;-0.120;2023-04-15T06:46:12;5.50;;;3.90;;
61393;SDS011;48555;50.952;-0.120;2023-04-15T06:48:37;5.95;;;4.00;;
61393;SDS011;48555;50.952;-0.120;2023-04-15T06:51:03;5.15;;;3.90;;
61393;SDS011;48555;50.952;-0.120;2023-04-15T06:53:28;5.43;;;4.05;;
61393;SDS011;48555;50.952;-0.120;2023-04-15T06:55:54;6.20;;;4.47;;
61393;SDS011;48555;50.952;-0.120;2023-04-15T06:58:19;6.53;;;4.07;;
61393;SDS011;48555;50.952;-0.120;2023-04-15T07:00:45;6.80;;;4.47;;
61393;SDS011;48555;50.952;-0.120;2023-04-15T07:03:11;5.40;;;3.88;;
61393;SDS011;48555;50.952;-0.120;2023-04-15T07:05:37;5.13;;;3.85;;
61393;SDS011;48555;50.952;-0.120;2023-04-15T07:08:03;5.00;;;3.60;;
61393;SDS011;48555;50.952;-0.120;2023-04-15T07:10:28;4.30;;;3.35;;
61393;SDS011;48555;50.952;-0.120;2023-04-15T07:12:54;5.45;;;3.20;;
61393;SDS011;48555;50.952;-0.120;2023-04-15T07:15:20;4.55;;;3.20;;
61393;SDS011;48555;50.952;-0.120;2023-04-15T07:17:46;4.03;;;2.95;;
61393;SDS011;48555;50.952;-0.120;2023-04-15T07:20:11;4.72;;;3.45;;
61393;SDS011;48555;50.952;-0.120;2023-04-15T07:22:37;4.35;;;3.22;;
61393;SDS011;48555;50.952;-0.120;2023-04-15T07:25:03;5.07;;;2.95;;
61393;SDS011;48555;50.952;-0.120;2023-04-15T07:27:29;4.35;;;3.25;;
61393;SDS011;48555;50.952;-0.120;2023-04-15T07:29:55;4.85;;;2.92;;
61393;SDS011;48555;50.952;-0.120;2023-04-15T07:32:20;4.80;;;2.80;;
61393;SDS011;48555;50.952;-0.120;2023-04-15T07:34:45;4.20;;;2.95;;
61393;SDS011;48555;50.952;-0.120;2023-04-15T07:37:11;4.53;;;3.00;;
61393;SDS011;48555;50.952;-0.120;2023-04-15T07:39:36;4.10;;;3.00;;
61393;SDS011;48555;50.952;-0.120;2023-04-15T07:42:02;3.97;;;2.90;;
61393;SDS011;48555;50.952;-0.120;2023-04-15T07:44:28;3.38;;;2.70;;
61393;SDS011;48555;50.952;-0.120;2023-04-15T07:46:53;3.78;;;2.70;;
61393;SDS011;48555;50.952;-0.120;2023-04-15T07:49:20;4.05;;;2.97;;
61393;SDS011;48555;50.952;-0.120;2023-04-15T07:51:45;4.43;;;3.03;;
61393;SDS011;48555;50.952;-0.120;2023-04-15T07:54:11;4.45;;;3.05;;
61393;SDS011;48555;50.952;-0.120;2023-04-15T07:56:36;4.15;;;3.00;;
61393;SDS011;48555;50.952;-0.120;2023-04-15T07:59:01;4.15;;;2.90;;
61393;SDS011;48555;50.952;-0.120;2023-04-15T08:01:29;5.43;;;2.72;;
61393;SDS011;48555;50.952;-0.120;2023-04-15T08:03:54;3.88;;;2.80;;
61393;SDS011;48555;50.952;-0.120;2023-04-15T08:06:20;4.50;;;3.08;;
61393;SDS011;48555;50.952;-0.120;2023-04-15T08:08:46;4.25;;;3.08;;
61393;SDS011;48555;50.952;-0.120;2023-04-15T08:11:12;3.83;;;2.83;;
61393;SDS011;48555;50.952;-0.120;2023-04-15T08:13:37;4.38;;;3.10;;
61393;SDS011;48555;50.952;-0.120;2023-04-15T08:16:16;3.90;;;3.03;;
61393;SDS011;48555;50.952;-0.120;2023-04-15T08:18:46;3.90;;;2.70;;
61393;SDS011;48555;50.952;-0.120;2023-04-15T08:21:13;5.07;;;2.88;;
61393;SDS011;48555;50.952;-0.120;2023-04-15T08:23:38;3.10;;;2.55;;
61393;SDS011;48555;50.952;-0.120;2023-04-15T08:26:04;3.30;;;2.70;;
61393;SDS011;48555;50.952;-0.120;2023-04-15T08:28:30;3.88;;;2.70;;
61393;SDS011;48555;50.952;-0.120;2023-04-15T08:30:55;5.35;;;3.00;;
61393;SDS011;48555;50.952;-0.120;2023-04-15T08:33:21;5.35;;;2.90;;
61393;SDS011;48555;50.952;-0.120;2023-04-15T08:35:47;4.15;;;2.72;;
61393;SDS011;48555;50.952;-0.120;2023-04-15T08:38:12;4.30;;;2.78;;
61393;SDS011;48555;50.952;-0.120;2023-04-15T08:40:41;4.63;;;3.05;;
61393;SDS011;48555;50.952;-0.120;2023-04-15T08:43:10;5.95;;;3.03;;
61393;SDS011;48555;50.952;-0.120;2023-04-15T08:45:39;3.80;;;2.85;;
61393;SDS011;48555;50.952;-0.120;2023-04-15T08:48:05;4.75;;;2.92;;
61393;SDS011;48555;50.952;-0.120;2023-04-15T08:50:33;4.65;;;3.30;;
61393;SDS011;48555;50.952;-0.120;2023-04-15T08:52:59;4.30;;;3.10;;
61393;SDS011;48555;50.952;-0.120;2023-04-15T08:55:26;4.97;;;3.08;;
61393;SDS011;48555;50.952;-0.120;2023-04-15T09:00:22;4.45;;;2.95;;
61393;SDS011;48555;50.952;-0.120;2023-04-15T09:02:48;3.70;;;2.83;;
61393;SDS011;48555;50.952;-0.120;2023-04-15T09:05:13;4.47;;;3.00;;
61393;SDS011;48555;50.952;-0.120;2023-04-15T09:07:39;3.88;;;3.10;;
61393;SDS011;48555;50.952;-0.120;2023-04-15T09:10:04;5.10;;;3.10;;
61393;SDS011;48555;50.952;-0.120;2023-04-15T09:12:32;4.32;;;2.88;;
61393;SDS011;48555;50.952;-0.120;2023-04-15T09:14:59;4.68;;;3.22;;
61393;SDS011;48555;50.952;-0.120;2023-04-15T09:17:26;3.25;;;2.70;;
61393;SDS011;48555;50.952;-0.120;2023-04-15T09:20:10;4.82;;;3.10;;
61393;SDS011;48555;50.952;-0.120;2023-04-15T09:22:40;4.28;;;3.45;;
61393;SDS011;48555;50.952;-0.120;2023-04-15T09:25:27;4.20;;;3.17;;
61393;SDS011;48555;50.952;-0.120;2023-04-15T09:27:53;5.25;;;3.38;;
61393;SDS011;48555;50.952;-0.120;2023-04-15T09:30:20;4.65;;;3.05;;
61393;SDS011;48555;50.952;-0.120;2023-04-15T09:32:59;4.82;;;3.00;;
61393;SDS011;48555;50.952;-0.120;2023-04-15T09:35:32;4.25;;;3.00;;
61393;SDS011;48555;50.952;-0.120;2023-04-15T09:38:03;4.38;;;2.72;;
61393;SDS011;48555;50.952;-0.120;2023-04-15T09:40:32;4.63;;;3.10;;
61393;SDS011;48555;50.952;-0.120;2023-04-15T09:43:09;4.43;;;3.10;;
61393;SDS011;48555;50.952;-0.120;2023-04-15T09:45:36;4.65;;;3.00;;
61393;SDS011;48555;50.952;-0.120;2023-04-15T09:48:21;3.72;;;2.70;;
61393;SDS011;48555;50.952;-0.120;2023-04-15T09:50:50;4.43;;;2.97;;
61393;SDS011;48555;50.952;-0.120;2023-04-15T09:53:21;5.30;;;3.10;;
61393;SDS011;48555;50.952;-0.120;2023-04-15T09:58:24;3.30;;;2.70;;
61393;SDS011;48555;50.952;-0.120;2023-04-15T10:00:52;4.35;;;2.72;;
61393;SDS011;48555;50.952;-0.120;2023-04-15T10:03:19;4.78;;;2.72;;
61393;SDS011;48555;50.952;-0.120;2023-04-15T10:05:46;5.45;;;3.15;;
61393;SDS011;48555;50.952;-0.120;2023-04-15T10:08:16;4.45;;;2.90;;
61393;SDS011;48555;50.952;-0.120;2023-04-15T10:10:43;4.88;;;3.00;;
61393;SDS011;48555;50.952;-0.120;2023-04-15T10:13:09;6.15;;;3.20;;
61393;SDS011;48555;50.952;-0.120;2023-04-15T10:15:36;5.93;;;3.25;;
61393;SDS011;48555;50.952;-0.120;2023-04-15T10:18:02;5.10;;;3.33;;
61393;SDS011;48555;50.952;-0.120;2023-04-15T10:20:31;5.97;;;3.40;;
61393;SDS011;48555;50.952;-0.120;2023-04-15T10:22:56;5.07;;;3.05;;
61393;SDS011;48555;50.952;-0.120;2023-04-15T10:25:22;4.60;;;3.20;;
61393;SDS011;48555;50.952;-0.120;2023-04-15T10:27:49;4.65;;;3.00;;
61393;SDS011;48555;50.952;-0.120;2023-04-15T10:30:16;4.93;;;3.17;;
61393;SDS011;48555;50.952;-0.120;2023-04-15T10:32:42;6.05;;;3.70;;
61393;SDS011;48555;50.952;-0.120;2023-04-15T10:35:09;5.30;;;3.20;;
61393;SDS011;48555;50.952;-0.120;2023-04-15T10:37:36;6.28;;;3.60;;
61393;SDS011;48555;50.952;-0.120;2023-04-15T10:40:24;6.90;;;3.58;;
61393;SDS011;48555;50.952;-0.120;2023-04-15T10:42:48;6.57;;;3.10;;
61393;SDS011;48555;50.952;-0.120;2023-04-15T10:45:17;5.32;;;3.15;;
61393;SDS011;48555;50.952;-0.120;2023-04-15T10:47:43;6.05;;;3.40;;
61393;SDS011;48555;50.952;-0.120;2023-04-15T10:50:08;5.13;;;3.38;;
61393;SDS011;48555;50.952;-0.120;2023-04-15T10:52:34;5.60;;;3.40;;
61393;SDS011;48555;50.952;-0.120;2023-04-15T10:55:18;6.00;;;3.53;;
61393;SDS011;48555;50.952;-0.120;2023-04-15T10:57:54;6.40;;;3.67;;
61393;SDS011;48555;50.952;-0.120;2023-04-15T11:00:25;7.72;;;3.67;;
61393;SDS011;48555;50.952;-0.120;2023-04-15T11:05:49;5.78;;;3.60;;
61393;SDS011;48555;50.952;-0.120;2023-04-15T11:08:13;6.15;;;3.60;;
61393;SDS011;48555;50.952;-0.120;2023-04-15T11:10:49;5.63;;;3.90;;
61393;SDS011;48555;50.952;-0.120;2023-04-15T11:13:16;5.50;;;3.30;;
61393;SDS011;48555;50.952;-0.120;2023-04-15T11:15:46;6.47;;;3.75;;
61393;SDS011;48555;50.952;-0.120;2023-04-15T11:18:13;6.03;;;4.03;;
61393;SDS011;48555;50.952;-0.120;2023-04-15T11:21:19;6.07;;;4.15;;
61393;SDS011;48555;50.952;-0.120;2023-04-15T11:23:38;7.10;;;4.05;;
61393;SDS011;48555;50.952;-0.120;2023-04-15T11:26:08;5.05;;;3.70;;
61393;SDS011;48555;50.952;-0.120;2023-04-15T11:28:37;6.15;;;4.28;;
61393;SDS011;48555;50.952;-0.120;2023-04-15T11:31:07;6.30;;;3.95;;
61393;SDS011;48555;50.952;-0.120;2023-04-15T11:33:35;7.03;;;4.32;;
61393;SDS011;48555;50.952;-0.120;2023-04-15T11:36:00;6.22;;;4.47;;
61393;SDS011;48555;50.952;-0.120;2023-04-15T11:38:26;8.85;;;4.38;;
61393;SDS011;48555;50.952;-0.120;2023-04-15T11:40:52;6.85;;;4.22;;
61393;SDS011;48555;50.952;-0.120;2023-04-15T11:43:21;6.22;;;4.15;;
61393;SDS011;48555;50.952;-0.120;2023-04-15T11:45:54;6.25;;;4.05;;
61393;SDS011;48555;50.952;-0.120;2023-04-15T11:48:33;6.55;;;4.00;;
61393;SDS011;48555;50.952;-0.120;2023-04-15T11:56:09;8.25;;;4.18;;
61393;SDS011;48555;50.952;-0.120;2023-04-15T11:58:45;7.93;;;4.10;;
61393;SDS011;48555;50.952;-0.120;2023-04-15T12:01:12;7.53;;;4.30;;
61393;SDS011;48555;50.952;-0.120;2023-04-15T12:03:41;7.35;;;4.50;;
61393;SDS011;48555;50.952;-0.120;2023-04-15T12:13:52;6.13;;;3.88;;
61393;SDS011;48555;50.952;-0.120;2023-04-15T12:16:27;7.47;;;3.92;;
61393;SDS011;48555;50.952;-0.120;2023-04-15T12:18:57;6.78;;;3.85;;
61393;SDS011;48555;50.952;-0.120;2023-04-15T12:21:25;7.15;;;3.97;;
61393;SDS011;48555;50.952;-0.120;2023-04-15T12:23:54;6.25;;;3.88;;
61393;SDS011;48555;50.952;-0.120;2023-04-15T12:26:27;7.38;;;4.22;;
61393;SDS011;48555;50.952;-0.120;2023-04-15T12:29:07;6.22;;;4.22;;
61393;SDS011;48555;50.952;-0.120;2023-04-15T12:31:36;8.20;;;4.30;;
61393;SDS011;48555;50.952;-0.120;2023-04-15T12:34:08;6.80;;;4.22;;
61393;SDS011;48555;50.952;-0.120;2023-04-15T12:36:33;8.30;;;4.55;;
61393;SDS011;48555;50.952;-0.120;2023-04-15T12:39:02;7.82;;;4.50;;
61393;SDS011;48555;50.952;-0.120;2023-04-15T12:41:28;7.93;;;4.28;;
61393;SDS011;48555;50.952;-0.120;2023-04-15T12:43:53;7.20;;;3.65;;
61393;SDS011;48555;50.952;-0.120;2023-04-15T12:46:19;6.07;;;4.30;;
61393;SDS011;48555;50.952;-0.120;2023-04-15T12:48:44;7.57;;;4.80;;
61393;SDS011;48555;50.952;-0.120;2023-04-15T12:51:10;6.13;;;4.22;;
61393;SDS011;48555;50.952;-0.120;2023-04-15T12:53:35;9.10;;;4.20;;
61393;SDS011;48555;50.952;-0.120;2023-04-15T12:56:01;6.55;;;3.90;;
61393;SDS011;48555;50.952;-0.120;2023-04-15T12:58:26;7.72;;;3.90;;
61393;SDS011;48555;50.952;-0.120;2023-04-15T13:00:52;10.63;;;4.47;;
61393;SDS011;48555;50.952;-0.120;2023-04-15T13:03:17;6.78;;;4.20;;
61393;SDS011;48555;50.952;-0.120;2023-04-15T13:05:42;7.50;;;4.13;;
61393;SDS011;48555;50.952;-0.120;2023-04-15T13:08:08;7.35;;;4.22;;
61393;SDS011;48555;50.952;-0.120;2023-04-15T13:10:34;6.40;;;4.38;;
61393;SDS011;48555;50.952;-0.120;2023-04-15T13:13:03;7.15;;;4.30;;
61393;SDS011;48555;50.952;-0.120;2023-04-15T13:15:29;9.07;;;4.32;;
61393;SDS011;48555;50.952;-0.120;2023-04-15T13:17:54;7.03;;;4.65;;
61393;SDS011;48555;50.952;-0.120;2023-04-15T13:20:20;7.60;;;4.20;;
61393;SDS011;48555;50.952;-0.120;2023-04-15T13:22:46;5.72;;;3.70;;
61393;SDS011;48555;50.952;-0.120;2023-04-15T13:25:11;6.03;;;4.00;;
61393;SDS011;48555;50.952;-0.120;2023-04-15T13:27:36;8.70;;;3.92;;
61393;SDS011;48555;50.952;-0.120;2023-04-15T13:30:02;6.65;;;4.22;;
61393;SDS011;48555;50.952;-0.120;2023-04-15T13:32:29;5.63;;;3.33;;
61393;SDS011;48555;50.952;-0.120;2023-04-15T13:34:54;5.38;;;3.35;;
61393;SDS011;48555;50.952;-0.120;2023-04-15T13:37:21;4.90;;;3.20;;
61393;SDS011;48555;50.952;-0.120;2023-04-15T13:39:50;6.38;;;3.13;;
61393;SDS011;48555;50.952;-0.120;2023-04-15T13:42:16;6.38;;;3.80;;
61393;SDS011;48555;50.952;-0.120;2023-04-15T13:44:41;8.40;;;4.18;;
61393;SDS011;48555;50.952;-0.120;2023-04-15T13:47:06;5.32;;;3.80;;
61393;SDS011;48555;50.952;-0.120;2023-04-15T13:49:32;5.97;;;3.85;;
61393;SDS011;48555;50.952;-0.120;2023-04-15T13:51:57;6.22;;;4.20;;
61393;SDS011;48555;50.952;-0.120;2023-04-15T13:54:22;7.60;;;4.00;;
61393;SDS011;48555;50.952;-0.120;2023-04-15T13:56:48;6.32;;;4.07;;
61393;SDS011;48555;50.952;-0.120;2023-04-15T13:59:13;7.18;;;4.22;;
61393;SDS011;48555;50.952;-0.120;2023-04-15T14:01:38;6.22;;;3.50;;
61393;SDS011;48555;50.952;-0.120;2023-04-15T14:04:05;9.45;;;4.10;;
61393;SDS011;48555;50.952;-0.120;2023-04-15T14:06:30;7.00;;;4.05;;
61393;SDS011;48555;50.952;-0.120;2023-04-15T14:08:56;8.00;;;3.70;;
61393;SDS011;48555;50.952;-0.120;2023-04-15T14:11:21;8.45;;;4.28;;
61393;SDS011;48555;50.952;-0.120;2023-04-15T14:13:46;6.55;;;3.97;;
61393;SDS011;48555;50.952;-0.120;2023-04-15T14:16:12;6.72;;;3.88;;
61393;SDS011;48555;50.952;-0.120;2023-04-15T14:18:37;8.52;;;4.18;;
61393;SDS011;48555;50.952;-0.120;2023-04-15T14:21:03;7.47;;;4.07;;
61393;SDS011;48555;50.952;-0.120;2023-04-15T14:23:30;6.85;;;4.00;;
61393;SDS011;48555;50.952;-0.120;2023-04-15T14:25:55;9.15;;;4.30;;
61393;SDS011;48555;50.952;-0.120;2023-04-15T14:28:21;6.82;;;3.80;;
61393;SDS011;48555;50.952;-0.120;2023-04-15T14:30:46;7.03;;;3.97;;
61393;SDS011;48555;50.952;-0.120;2023-04-15T14:33:11;8.02;;;3.60;;
61393;SDS011;48555;50.952;-0.120;2023-04-15T14:35:37;8.95;;;4.15;;
61393;SDS011;48555;50.952;-0.120;2023-04-15T14:38:03;10.80;;;4.10;;
61393;SDS011;48555;50.952;-0.120;2023-04-15T14:40:29;6.82;;;3.80;;
61393;SDS011;48555;50.952;-0.120;2023-04-15T14:42:55;6.93;;;4.00;;
61393;SDS011;48555;50.952;-0.120;2023-04-15T14:45:20;6.50;;;3.85;;
61393;SDS011;48555;50.952;-0.120;2023-04-15T14:47:45;6.75;;;3.75;;
61393;SDS011;48555;50.952;-0.120;2023-04-15T14:50:11;7.40;;;3.90;;